createdAt,value
2018-07-23T00:00:31.952Z,969.26
2018-07-23T00:01:31.959Z,969.3
2018-07-23T00:02:31.952Z,969.24
2018-07-23T00:03:41.902Z,969.23
2018-07-23T00:04:32.002Z,969.33
2018-07-23T00:05:31.973Z,969.32
2018-07-23T00:06:31.989Z,969.44
2018-07-23T00:07:31.991Z,969.43
2018-07-23T00:08:31.935Z,969.71
2018-07-23T00:09:31.973Z,969.81
2018-07-23T00:10:31.983Z,969.14
2018-07-23T00:11:32.018Z,969.18
2018-07-23T00:12:31.980Z,969.34
2018-07-23T00:13:32.000Z,969.35
2018-07-23T00:14:32.000Z,969.29
2018-07-23T00:15:32.008Z,969.4
2018-07-23T00:16:31.984Z,969.38
2018-07-23T00:17:32.009Z,969.58
2018-07-23T00:18:31.950Z,969.38
2018-07-23T00:19:32.006Z,969.49
2018-07-23T00:20:31.999Z,969.2
2018-07-23T00:21:31.971Z,969.47
2018-07-23T00:22:31.977Z,969.29
2018-07-23T00:23:31.939Z,969.31
2018-07-23T00:24:31.954Z,969.32
2018-07-23T00:25:31.964Z,969.72
2018-07-23T00:26:31.966Z,969.5
2018-07-23T00:27:31.987Z,969.53
2018-07-23T00:28:31.986Z,970.04
2018-07-23T00:29:31.972Z,969.51
2018-07-23T00:30:31.956Z,969.53
2018-07-23T00:31:31.941Z,970
2018-07-23T00:32:31.983Z,969.83
2018-07-23T00:33:31.987Z,969.95
2018-07-23T00:34:31.998Z,969.83
2018-07-23T00:35:31.988Z,969.83
2018-07-23T00:36:32.037Z,970.15
2018-07-23T00:37:32.028Z,969.93
2018-07-23T00:38:32.063Z,969.82
2018-07-23T00:39:32.050Z,969.63
2018-07-23T00:40:31.996Z,969.72
2018-07-23T00:41:32.033Z,969.93
2018-07-23T00:42:32.053Z,969.76
2018-07-23T00:43:32.048Z,969.93
2018-07-23T00:44:32.075Z,969.93
2018-07-23T00:45:32.068Z,969.51
2018-07-23T00:46:32.037Z,969.61
2018-07-23T00:47:32.084Z,969.89
2018-07-23T00:48:32.075Z,969.4
2018-07-23T00:49:32.060Z,969.49
2018-07-23T00:50:32.071Z,969.27
2018-07-23T00:51:32.065Z,969.51
2018-07-23T00:52:32.109Z,969.33
2018-07-23T00:53:32.072Z,969.34
2018-07-23T00:54:32.062Z,969.26
2018-07-23T00:55:32.051Z,969.34
2018-07-23T00:56:32.058Z,969.34
2018-07-23T00:57:32.053Z,969.3
2018-07-23T00:58:32.044Z,969.28
2018-07-23T00:59:32.053Z,969.15
2018-07-23T01:00:32.066Z,969.26
2018-07-23T01:01:32.066Z,969.26
2018-07-23T01:02:32.069Z,969.28
2018-07-23T01:03:32.091Z,969.2
2018-07-23T01:04:32.059Z,969.51
2018-07-23T01:05:32.069Z,969.39
2018-07-23T01:06:32.076Z,969.78
2018-07-23T01:07:32.113Z,969.49
2018-07-23T01:08:32.057Z,969.59
2018-07-23T01:09:32.049Z,970
2018-07-23T01:10:32.050Z,969.72
2018-07-23T01:11:32.070Z,969.8
2018-07-23T01:12:32.079Z,970.51
2018-07-23T01:13:32.113Z,970.4
2018-07-23T01:14:32.091Z,970.37
2018-07-23T01:15:32.111Z,970.01
2018-07-23T01:16:32.092Z,970.13
2018-07-23T01:17:32.110Z,970.1
2018-07-23T01:18:32.119Z,970.38
2018-07-23T01:19:32.114Z,970.19
2018-07-23T01:20:32.127Z,970.51
2018-07-23T01:21:32.107Z,969.91
2018-07-23T01:22:32.115Z,970.05
2018-07-23T01:23:32.082Z,969.66
2018-07-23T01:24:32.115Z,970.17
2018-07-23T01:25:32.122Z,970.07
2018-07-23T01:26:32.160Z,970.1
2018-07-23T01:27:32.107Z,970.09
2018-07-23T01:28:32.114Z,970.07
2018-07-23T01:29:32.077Z,970.15
2018-07-23T01:30:32.105Z,969.8
2018-07-23T01:31:32.131Z,970.11
2018-07-23T01:32:32.107Z,970.1
2018-07-23T01:33:32.146Z,970.23
2018-07-23T01:34:32.117Z,970.32
2018-07-23T01:35:32.177Z,970.44
2018-07-23T01:36:49.100Z,970.16
2018-07-23T01:37:49.090Z,970.55
2018-07-23T01:38:49.032Z,970.56
2018-07-23T01:39:49.173Z,970.15
2018-07-23T01:40:49.055Z,970.27
2018-07-23T01:41:49.096Z,970.79
2018-07-23T01:42:49.050Z,969.86
2018-07-23T01:43:49.041Z,970.17
2018-07-23T01:44:49.078Z,970.59
2018-07-23T01:45:49.099Z,969.96
2018-07-23T01:46:49.089Z,970.18
2018-07-23T01:47:49.064Z,970.2
2018-07-23T01:48:49.066Z,969.99
2018-07-23T01:49:49.073Z,970.29
2018-07-23T01:50:49.069Z,970.19
2018-07-23T01:51:49.056Z,970.36
2018-07-23T01:52:49.067Z,970.07
2018-07-23T01:53:49.103Z,969.99
2018-07-23T01:54:49.128Z,969.97
2018-07-23T01:55:49.133Z,970.44
2018-07-23T01:56:49.413Z,970.47
2018-07-23T01:57:49.127Z,970.63
2018-07-23T01:58:49.164Z,970.34
2018-07-23T01:59:49.156Z,969.96
2018-07-23T02:00:49.143Z,969.83
2018-07-23T02:01:49.191Z,970
2018-07-23T02:02:49.154Z,970.03
2018-07-23T02:03:49.183Z,970.1
2018-07-23T02:04:49.123Z,970.35
2018-07-23T02:05:49.155Z,970.17
2018-07-23T02:06:49.158Z,970.32
2018-07-23T02:07:49.121Z,970.33
2018-07-23T02:08:49.122Z,970.1
2018-07-23T02:09:49.166Z,970.52
2018-07-23T02:10:49.101Z,970.44
2018-07-23T02:11:49.114Z,969.69
2018-07-23T02:12:49.109Z,969.94
2018-07-23T02:13:49.153Z,969.84
2018-07-23T02:14:49.506Z,969.65
2018-07-23T02:15:49.148Z,969.85
2018-07-23T02:16:49.134Z,969.85
2018-07-23T02:17:49.108Z,969.54
2018-07-23T02:18:49.138Z,969.73
2018-07-23T02:19:49.145Z,969.84
2018-07-23T02:20:49.159Z,969.9
2018-07-23T02:21:49.207Z,969.64
2018-07-23T02:22:49.141Z,970.04
2018-07-23T02:23:49.144Z,969.74
2018-07-23T02:24:49.161Z,969.7
2018-07-23T02:25:49.143Z,970.2
2018-07-23T02:26:49.185Z,970.11
2018-07-23T02:27:49.145Z,969.9
2018-07-23T02:28:49.174Z,970.55
2018-07-23T02:29:49.115Z,969.8
2018-07-23T02:30:49.164Z,969.69
2018-07-23T02:31:49.144Z,969.65
2018-07-23T02:32:49.157Z,969.48
2018-07-23T02:33:49.153Z,969.84
2018-07-23T02:34:49.193Z,969.76
2018-07-23T02:35:49.172Z,969.86
2018-07-23T02:36:49.136Z,970.21
2018-07-23T02:37:49.143Z,970.2
2018-07-23T02:38:49.172Z,970.35
2018-07-23T02:39:49.186Z,969.94
2018-07-23T02:40:49.173Z,969.84
2018-07-23T02:41:49.159Z,970.33
2018-07-23T02:42:49.198Z,969.84
2018-07-23T02:43:49.158Z,970.11
2018-07-23T02:44:49.148Z,969.92
2018-07-23T02:45:49.170Z,969.95
2018-07-23T02:46:49.171Z,969.65
2018-07-23T02:47:49.168Z,970.26
2018-07-23T02:48:49.178Z,970.17
2018-07-23T02:49:49.224Z,969.77
2018-07-23T02:50:49.170Z,970
2018-07-23T02:51:49.181Z,969.97
2018-07-23T02:52:49.173Z,970
2018-07-23T02:53:49.207Z,969.95
2018-07-23T02:54:49.223Z,969.92
2018-07-23T02:55:49.192Z,970.11
2018-07-23T02:56:49.206Z,970.48
2018-07-23T02:57:49.235Z,970.28
2018-07-23T02:58:49.227Z,969.87
2018-07-23T02:59:49.206Z,969.94
2018-07-23T03:00:49.197Z,969.74
2018-07-23T03:01:49.190Z,970.03
2018-07-23T03:02:49.233Z,969.76
2018-07-23T03:03:49.206Z,969.77
2018-07-23T03:04:49.218Z,969.88
2018-07-23T03:05:49.212Z,969.71
2018-07-23T03:06:49.217Z,970.81
2018-07-23T03:07:49.245Z,970.45
2018-07-23T03:08:49.239Z,970.13
2018-07-23T03:09:49.236Z,970.44
2018-07-23T03:10:49.213Z,970.14
2018-07-23T03:11:49.243Z,970.15
2018-07-23T03:12:49.260Z,970.07
2018-07-23T03:13:49.211Z,970.59
2018-07-23T03:14:49.239Z,970.21
2018-07-23T03:15:49.245Z,969.98
2018-07-23T03:16:49.295Z,969.8
2018-07-23T03:17:49.239Z,970.32
2018-07-23T03:18:49.279Z,970.11
2018-07-23T03:19:49.213Z,969.91
2018-07-23T03:20:49.242Z,970.33
2018-07-23T03:21:49.269Z,969.95
2018-07-23T03:22:49.240Z,969.86
2018-07-23T03:23:49.263Z,970.07
2018-07-23T03:24:49.247Z,970.22
2018-07-23T03:25:49.261Z,970.24
2018-07-23T03:26:49.250Z,969.71
2018-07-23T03:27:49.238Z,969.96
2018-07-23T03:28:49.281Z,969.77
2018-07-23T03:29:49.265Z,970.09
2018-07-23T03:30:49.275Z,969.89
2018-07-23T03:31:49.247Z,969.98
2018-07-23T03:32:49.256Z,970.03
2018-07-23T03:33:49.262Z,970.22
2018-07-23T03:34:49.312Z,970.15
2018-07-23T03:35:49.325Z,970.27
2018-07-23T03:36:49.351Z,970.79
2018-07-23T03:37:49.373Z,970.65
2018-07-23T03:38:49.567Z,970.07
2018-07-23T03:39:49.367Z,970.16
2018-07-23T03:40:49.271Z,970.44
2018-07-23T03:41:49.317Z,970.17
2018-07-23T03:42:49.358Z,969.99
2018-07-23T03:43:49.336Z,970.07
2018-07-23T03:44:49.294Z,970.88
2018-07-23T03:45:49.293Z,969.99
2018-07-23T03:46:49.314Z,970.29
2018-07-23T03:47:49.280Z,970.29
2018-07-23T03:48:49.308Z,970.53
2018-07-23T03:49:49.274Z,970.23
2018-07-23T03:50:49.350Z,970.44
2018-07-23T03:51:49.276Z,970.33
2018-07-23T03:52:49.291Z,970.55
2018-07-23T03:53:49.288Z,970.61
2018-07-23T03:54:49.278Z,970.27
2018-07-23T03:55:49.304Z,970.61
2018-07-23T03:56:49.339Z,970.57
2018-07-23T03:57:49.292Z,970.29
2018-07-23T03:58:49.307Z,970.29
2018-07-23T03:59:49.311Z,970.6
2018-07-23T04:00:49.302Z,970.69
2018-07-23T04:01:49.344Z,970.43
2018-07-23T04:02:49.313Z,970.36
2018-07-23T04:03:49.328Z,970.75
2018-07-23T04:04:49.315Z,970.36
2018-07-23T04:05:49.365Z,970.42
2018-07-23T04:06:49.324Z,970.43
2018-07-23T04:07:49.360Z,969.97
2018-07-23T04:08:49.319Z,970.26
2018-07-23T04:09:49.358Z,970.18
2018-07-23T04:10:49.335Z,970.08
2018-07-23T04:11:49.343Z,969.78
2018-07-23T04:12:49.359Z,970.18
2018-07-23T04:13:49.352Z,970
2018-07-23T04:14:49.337Z,970.1
2018-07-23T04:15:49.342Z,970.32
2018-07-23T04:16:49.377Z,969.82
2018-07-23T04:17:49.741Z,970.03
2018-07-23T04:22:21.288Z,969.97
2018-07-23T04:23:20.693Z,969.87
2018-07-23T04:24:20.627Z,970.28
2018-07-23T04:25:20.636Z,970.17
2018-07-23T04:26:20.643Z,970.05
2018-07-23T04:27:20.650Z,969.97
2018-07-23T04:28:20.654Z,969.93
2018-07-23T04:29:20.650Z,969.76
2018-07-23T04:30:20.662Z,969.86
2018-07-23T04:31:20.664Z,969.84
2018-07-23T04:32:20.815Z,969.65
2018-07-23T04:33:20.668Z,969.8
2018-07-23T04:34:20.656Z,969.84
2018-07-23T04:35:20.698Z,969.23
2018-07-23T04:36:20.685Z,969.15
2018-07-23T04:37:20.693Z,969.07
2018-07-23T04:38:20.693Z,969.06
2018-07-23T04:39:20.660Z,968.95
2018-07-23T04:40:20.656Z,968.78
2018-07-23T04:41:20.671Z,968.78
2018-07-23T04:42:20.695Z,968.15
2018-07-23T04:43:21.707Z,968.47
2018-07-23T04:44:20.684Z,967.97
2018-07-23T04:45:20.693Z,968.08
2018-07-23T04:46:20.723Z,968.39
2018-07-23T04:47:20.691Z,968.12
2018-07-23T04:48:20.681Z,968.52
2018-07-23T04:49:20.764Z,968.41
2018-07-23T04:50:20.713Z,968.14
2018-07-23T04:51:20.722Z,967.99
2018-07-23T04:52:20.691Z,968.37
2018-07-23T04:53:20.699Z,968.37
2018-07-23T04:54:20.772Z,968.18
2018-07-23T04:55:20.694Z,968.4
2018-07-23T04:56:20.694Z,968.52
2018-07-23T04:57:20.707Z,968.31
2018-07-23T04:58:20.707Z,968.52
2018-07-23T04:59:20.705Z,968.2
2018-07-23T05:00:20.722Z,968.3
2018-07-23T05:01:20.735Z,968.26
2018-07-23T05:02:20.724Z,968.5
2018-07-23T05:03:20.733Z,968.5
2018-07-23T05:04:20.716Z,968.59
2018-07-23T05:05:20.714Z,968.67
2018-07-23T05:06:20.730Z,968.69
2018-07-23T05:07:20.724Z,968.62
2018-07-23T05:08:20.733Z,968.81
2018-07-23T05:09:20.736Z,968.88
2018-07-23T05:10:21.292Z,968.73
2018-07-23T05:11:20.749Z,968.93
2018-07-23T05:12:20.954Z,968.72
2018-07-23T05:13:57.370Z,969.01
2018-07-23T05:15:23.206Z,968.93
2018-07-23T05:16:01.458Z,969.14
2018-07-23T05:17:01.413Z,969.39
2018-07-23T05:18:01.474Z,969.56
2018-07-23T05:19:01.960Z,969.34
2018-07-23T05:20:01.554Z,969.83
2018-07-23T05:21:01.458Z,969.97
2018-07-23T05:22:01.431Z,969.77
2018-07-23T05:23:01.441Z,969.97
2018-07-23T05:27:33.087Z,970.43
2018-07-23T05:29:52.868Z,970.68
2018-07-23T05:30:52.825Z,970.6
2018-07-23T05:31:52.920Z,970.9
2018-07-23T05:32:52.832Z,970.93
2018-07-23T05:33:52.847Z,971.11
2018-07-23T05:34:52.843Z,971.83
2018-07-23T05:35:52.852Z,971.34
2018-07-23T05:36:52.895Z,971.77
2018-07-23T05:37:52.842Z,971.72
2018-07-23T05:38:52.850Z,971.59
2018-07-23T05:39:52.863Z,971.91
2018-07-23T05:40:52.834Z,971.82
2018-07-23T05:41:52.875Z,972
2018-07-23T05:42:52.909Z,972.32
2018-07-23T05:43:52.879Z,972.11
2018-07-23T05:44:52.923Z,972.42
2018-07-23T05:45:52.860Z,972.15
2018-07-23T05:46:52.892Z,972.25
2018-07-23T05:47:52.882Z,972.37
2018-07-23T05:48:52.906Z,972.38
2018-07-23T05:49:52.886Z,972.68
2018-07-23T05:50:52.923Z,972.53
2018-07-23T05:51:52.894Z,972.27
2018-07-23T05:52:52.915Z,972.66
2018-07-23T05:53:52.915Z,972.97
2018-07-23T05:54:52.915Z,972.78
2018-07-23T05:55:52.978Z,973.08
2018-07-23T05:56:52.907Z,972.98
2018-07-23T05:57:52.940Z,972.99
2018-07-23T05:58:53.021Z,972.96
2018-07-23T05:59:52.944Z,972.99
2018-07-23T06:00:52.960Z,973.2
2018-07-23T06:01:52.894Z,973.3
2018-07-23T06:02:52.924Z,973.33
2018-07-23T06:03:52.908Z,973.42
2018-07-23T06:04:52.938Z,973.62
2018-07-23T06:05:52.919Z,973.51
2018-07-23T06:06:52.975Z,973.6
2018-07-23T06:07:52.901Z,973.5
2018-07-23T06:08:52.896Z,973.62
2018-07-23T06:09:52.924Z,973.82
2018-07-23T06:10:52.935Z,974.02
2018-07-23T06:11:52.919Z,973.71
2018-07-23T06:12:52.921Z,974.04
2018-07-23T06:13:52.927Z,973.75
2018-07-23T06:14:52.940Z,973.87
2018-07-23T06:15:52.970Z,974.07
2018-07-23T06:16:52.955Z,974.19
2018-07-23T06:17:52.997Z,974.09
2018-07-23T06:18:52.933Z,974.37
2018-07-23T06:19:52.939Z,974.32
2018-07-23T06:20:52.927Z,974.28
2018-07-23T06:21:52.947Z,974.29
2018-07-23T06:22:52.992Z,974.51
2018-07-23T06:23:52.985Z,974.31
2018-07-23T06:24:53.010Z,974.34
2018-07-23T06:25:52.954Z,974.22
2018-07-23T06:26:52.919Z,974.13
2018-07-23T06:27:52.954Z,974.59
2018-07-23T06:28:52.960Z,974.18
2018-07-23T06:29:53.055Z,974.39
2018-07-23T06:30:52.960Z,974.71
2018-07-23T06:31:52.991Z,974.72
2018-07-23T06:32:53.051Z,974.84
2018-07-23T06:33:52.985Z,974.53
2018-07-23T06:34:52.978Z,974.81
2018-07-23T06:35:52.971Z,975.14
2018-07-23T06:36:52.984Z,974.87
2018-07-23T06:37:52.962Z,975.14
2018-07-23T06:38:52.955Z,975.05
2018-07-23T06:39:52.994Z,975.15
2018-07-23T06:40:52.998Z,974.95
2018-07-23T06:41:52.949Z,975.23
2018-07-23T06:42:52.994Z,975.26
2018-07-23T06:43:53.019Z,975.37
2018-07-23T06:44:53.028Z,975.27
2018-07-23T06:45:53.024Z,975.23
2018-07-23T06:46:52.963Z,975.33
2018-07-23T06:47:52.979Z,975.35
2018-07-23T06:48:52.953Z,975.53
2018-07-23T06:49:53.033Z,975.63
2018-07-23T06:50:53.031Z,975.7
2018-07-23T06:51:52.986Z,975.5
2018-07-23T06:52:52.996Z,975.7
2018-07-23T06:53:53.074Z,975.6
2018-07-23T06:54:52.988Z,975.67
2018-07-23T06:55:53.695Z,975.6
2018-07-23T06:56:53.020Z,975.42
2018-07-23T06:57:53.013Z,975.29
2018-07-23T06:58:53.034Z,975.39
2018-07-23T06:59:53.007Z,975.8
2018-07-23T07:00:52.972Z,975.84
2018-07-23T07:01:53.017Z,975.73
2018-07-23T07:02:53.042Z,976.01
2018-07-23T07:03:52.991Z,975.8
2018-07-23T07:04:53.037Z,975.9
2018-07-23T07:05:53.033Z,975.9
2018-07-23T07:06:53.005Z,976.01
2018-07-23T07:07:53.011Z,976.08
2018-07-23T07:08:53.035Z,976.29
2018-07-23T07:09:52.991Z,976.1
2018-07-23T07:10:53.126Z,975.93
2018-07-23T07:11:53.075Z,975.98
2018-07-23T07:12:53.015Z,976.01
2018-07-23T07:13:53.039Z,975.99
2018-07-23T07:14:53.044Z,975.91
2018-07-23T07:15:53.032Z,975.9
2018-07-23T07:16:53.046Z,975.91
2018-07-23T07:17:53.045Z,976.27
2018-07-23T07:18:53.034Z,976.26
2018-07-23T07:19:53.064Z,976.22
2018-07-23T07:20:53.069Z,976.54
2018-07-23T07:21:53.069Z,976.22
2018-07-23T07:22:53.061Z,976.13
2018-07-23T07:23:53.054Z,976.28
2018-07-23T07:24:53.062Z,976.28
2018-07-23T07:25:53.058Z,976.29
2018-07-23T07:26:53.110Z,976.25
2018-07-23T07:27:53.111Z,976.16
2018-07-23T07:28:53.074Z,976.64
2018-07-23T07:29:53.055Z,976.35
2018-07-23T07:30:53.088Z,975.95
2018-07-23T07:31:53.093Z,976.5
2018-07-23T07:32:53.101Z,976.23
2018-07-23T07:33:53.085Z,976.72
2018-07-23T07:34:53.094Z,976.44
2018-07-23T07:35:53.105Z,976.22
2018-07-23T07:36:53.113Z,976.93
2018-07-23T07:37:53.171Z,976.65
2018-07-23T07:38:53.098Z,976.63
2018-07-23T07:39:53.084Z,976.67
2018-07-23T07:40:53.111Z,976.45
2018-07-23T07:41:53.138Z,976.54
2018-07-23T07:42:53.084Z,976.63
2018-07-23T07:43:53.103Z,976.27
2018-07-23T07:44:53.112Z,976.55
2018-07-23T07:45:53.085Z,976.55
2018-07-23T07:46:53.126Z,976.24
2018-07-23T07:47:53.175Z,976.55
2018-07-23T07:48:53.076Z,976.63
2018-07-23T07:49:53.117Z,976.67
2018-07-23T07:50:53.097Z,976.98
2018-07-23T07:51:53.107Z,976.68
2018-07-23T07:52:53.103Z,976.56
2018-07-23T07:53:53.087Z,976.87
2018-07-23T07:54:53.138Z,976.46
2018-07-23T07:55:53.091Z,976.87
2018-07-23T07:56:53.096Z,976.75
2018-07-23T07:57:53.137Z,976.78
2018-07-23T07:58:53.122Z,976.86
2018-07-23T07:59:53.092Z,976.99
2018-07-23T08:00:53.151Z,976.98
2018-07-23T08:01:53.121Z,976.88
2018-07-23T08:02:53.148Z,976.6
2018-07-23T08:03:53.083Z,976.65
2018-07-23T08:04:53.161Z,976.88
2018-07-23T08:05:53.193Z,976.76
2018-07-23T08:06:53.104Z,976.96
2018-07-23T08:07:53.113Z,976.69
2018-07-23T08:08:53.134Z,976.95
2018-07-23T08:09:53.119Z,976.85
2018-07-23T08:10:53.153Z,976.91
2018-07-23T08:11:53.137Z,977.06
2018-07-23T08:12:53.136Z,976.77
2018-07-23T08:13:53.140Z,976.9
2018-07-23T08:14:53.116Z,977.09
2018-07-23T08:15:53.157Z,977.16
2018-07-23T08:16:53.141Z,977.1
2018-07-23T08:17:53.245Z,977.1
2018-07-23T08:18:53.195Z,977.01
2018-07-23T08:19:53.169Z,977.18
2018-07-23T08:20:53.185Z,977.22
2018-07-23T08:21:53.121Z,977.23
2018-07-23T08:22:53.156Z,977.52
2018-07-23T08:23:53.178Z,977.17
2018-07-23T08:24:53.156Z,977.28
2018-07-23T08:25:53.228Z,977.37
2018-07-23T08:26:53.154Z,977.17
2018-07-23T08:27:53.190Z,977.34
2018-07-23T08:28:53.163Z,977.25
2018-07-23T08:29:53.147Z,977.14
2018-07-23T08:30:53.190Z,977.53
2018-07-23T08:31:53.243Z,977.15
2018-07-23T08:32:53.193Z,977.35
2018-07-23T08:33:53.144Z,977.44
2018-07-23T08:34:53.151Z,977.34
2018-07-23T08:35:53.175Z,977.33
2018-07-23T08:36:53.185Z,977.24
2018-07-23T08:37:53.196Z,977.44
2018-07-23T08:38:53.199Z,977.25
2018-07-23T08:39:53.179Z,977.46
2018-07-23T08:40:53.271Z,977.57
2018-07-23T08:41:53.250Z,977.54
2018-07-23T08:42:53.219Z,977.45
2018-07-23T08:43:53.173Z,977.47
2018-07-23T08:44:53.244Z,977.48
2018-07-23T08:45:53.180Z,977.57
2018-07-23T08:46:53.186Z,977.37
2018-07-23T08:47:53.221Z,977.49
2018-07-23T08:48:53.213Z,977.3
2018-07-23T08:49:53.212Z,977.48
2018-07-23T08:50:53.253Z,977.44
2018-07-23T08:51:53.223Z,977.47
2018-07-23T08:52:53.224Z,977.36
2018-07-23T08:53:53.216Z,977.86
2018-07-23T08:54:53.197Z,977.56
2018-07-23T08:55:53.211Z,977.52
2018-07-23T08:56:53.219Z,977.52
2018-07-23T08:57:53.243Z,977.56
2018-07-23T08:58:53.205Z,977.66
2018-07-23T08:59:53.205Z,977.56
2018-07-23T09:00:53.287Z,977.74
2018-07-23T09:01:53.249Z,977.78
2018-07-23T09:04:13.263Z,977.78
2018-07-23T09:05:13.228Z,977.65
2018-07-23T09:06:13.195Z,977.64
2018-07-23T09:07:30.543Z,977.77
2018-07-23T09:08:30.289Z,977.75
2018-07-23T09:09:30.508Z,977.95
2018-07-23T09:10:30.240Z,977.82
2018-07-23T09:11:30.181Z,977.59
2018-07-23T09:12:30.218Z,978.13
2018-07-23T09:13:30.206Z,977.91
2018-07-23T09:14:30.255Z,977.92
2018-07-23T09:15:30.238Z,978.01
2018-07-23T09:16:30.237Z,978.03
2018-07-23T09:17:30.237Z,978.11
2018-07-23T09:18:30.249Z,978.03
2018-07-23T09:19:30.522Z,977.85
2018-07-23T09:20:30.238Z,978.05
2018-07-23T09:21:30.245Z,978.03
2018-07-23T09:22:30.210Z,978.3
2018-07-23T09:23:30.202Z,977.83
2018-07-23T09:24:30.194Z,977.75
2018-07-23T09:25:30.224Z,977.8
2018-07-23T09:26:30.215Z,977.84
2018-07-23T09:27:30.218Z,977.47
2018-07-23T09:28:30.348Z,978.05
2018-07-23T09:29:30.240Z,977.65
2018-07-23T09:30:30.317Z,977.85
2018-07-23T09:31:30.263Z,978.02
2018-07-23T09:32:30.270Z,977.84
2018-07-23T09:33:30.259Z,977.98
2018-07-23T09:34:30.279Z,977.9
2018-07-23T09:35:30.220Z,977.64
2018-07-23T09:36:30.287Z,977.73
2018-07-23T09:37:30.241Z,978.04
2018-07-23T09:38:30.289Z,977.95
2018-07-23T09:39:30.218Z,977.83
2018-07-23T09:40:30.252Z,977.74
2018-07-23T09:41:30.256Z,977.93
2018-07-23T09:42:30.244Z,977.84
2018-07-23T09:43:30.268Z,977.93
2018-07-23T09:44:30.237Z,977.65
2018-07-23T09:45:30.305Z,977.82
2018-07-23T09:46:30.239Z,977.73
2018-07-23T09:47:30.239Z,977.73
2018-07-23T09:48:30.314Z,978
2018-07-23T09:49:30.257Z,977.81
2018-07-23T09:50:30.254Z,977.78
2018-07-23T09:51:30.289Z,977.98
2018-07-23T09:52:30.310Z,977.49
2018-07-23T09:53:30.272Z,977.77
2018-07-23T09:54:30.241Z,977.91
2018-07-23T09:55:30.261Z,977.89
2018-07-23T09:56:30.293Z,977.8
2018-07-23T09:57:30.266Z,977.99
2018-07-23T09:58:30.311Z,977.6
2018-07-23T09:59:30.285Z,978.01
2018-07-23T10:00:30.278Z,978.4
2018-07-23T10:01:30.288Z,977.84
2018-07-23T10:02:31.244Z,977.67
2018-07-23T10:03:30.379Z,977.83
2018-07-23T10:04:30.280Z,977.9
2018-07-23T10:05:30.288Z,978.1
2018-07-23T10:06:30.281Z,978.42
2018-07-23T10:07:30.299Z,978.12
2018-07-23T10:08:30.280Z,978.33
2018-07-23T10:09:30.344Z,977.88
2018-07-23T10:10:30.285Z,978.02
2018-07-23T10:11:45.180Z,978.31
2018-07-23T10:12:30.323Z,977.99
2018-07-23T10:13:30.315Z,977.97
2018-07-23T10:14:30.303Z,978.27
2018-07-23T10:15:30.322Z,977.77
2018-07-23T10:16:30.333Z,978.46
2018-07-23T10:17:30.777Z,978.36
2018-07-23T10:18:30.339Z,978.22
2018-07-23T10:19:30.304Z,978.2
2018-07-23T10:20:30.320Z,978.3
2018-07-23T10:21:30.317Z,978.11
2018-07-23T10:22:30.325Z,978.17
2018-07-23T10:23:30.353Z,978.26
2018-07-23T10:24:30.360Z,978.05
2018-07-23T10:25:30.312Z,977.75
2018-07-23T10:26:30.379Z,978.08
2018-07-23T10:27:30.348Z,978
2018-07-23T10:28:30.364Z,977.91
2018-07-23T10:29:30.330Z,977.73
2018-07-23T10:30:30.352Z,977.94
2018-07-23T10:31:30.344Z,978.19
2018-07-23T10:32:30.361Z,977.97
2018-07-23T10:33:30.360Z,977.96
2018-07-23T10:34:30.374Z,977.91
2018-07-23T10:35:30.375Z,977.76
2018-07-23T10:36:30.385Z,977.94
2018-07-23T10:37:30.349Z,977.63
2018-07-23T10:38:30.330Z,978
2018-07-23T10:39:30.374Z,977.97
2018-07-23T10:40:30.392Z,977.95
2018-07-23T10:41:30.388Z,978.07
2018-07-23T10:42:30.386Z,977.84
2018-07-23T10:43:30.409Z,978.03
2018-07-23T10:44:30.361Z,977.84
2018-07-23T10:45:30.372Z,978.1
2018-07-23T10:46:30.378Z,977.93
2018-07-23T10:47:30.361Z,977.99
2018-07-23T10:48:30.387Z,977.82
2018-07-23T10:49:30.403Z,978.08
2018-07-23T10:50:30.367Z,978.36
2018-07-23T10:51:30.369Z,978.33
2018-07-23T10:52:30.363Z,978.43
2018-07-23T10:53:30.387Z,978
2018-07-23T10:54:30.367Z,978.01
2018-07-23T10:55:30.368Z,978.11
2018-07-23T10:56:30.407Z,977.89
2018-07-23T11:01:02.043Z,977.61
2018-07-23T11:02:02.020Z,977.83
2018-07-23T11:03:01.993Z,978.08
2018-07-23T11:04:01.996Z,977.73
2018-07-23T11:05:02.019Z,978.02
2018-07-23T11:06:02.041Z,977.84
2018-07-23T11:07:01.991Z,977.73
2018-07-23T11:08:01.996Z,977.62
2018-07-23T11:09:02.040Z,977.65
2018-07-23T11:10:02.039Z,977.93
2018-07-23T11:11:02.015Z,977.61
2018-07-23T11:12:02.105Z,977.6
2018-07-23T11:13:02.086Z,977.72
2018-07-23T11:14:02.037Z,977.97
2018-07-23T11:15:02.045Z,977.98
2018-07-23T11:16:02.012Z,977.89
2018-07-23T11:17:02.085Z,977.96
2018-07-23T11:18:02.058Z,977.76
2018-07-23T11:19:02.046Z,977.58
2018-07-23T11:20:02.058Z,977.76
2018-07-23T11:21:02.030Z,977.64
2018-07-23T11:22:02.014Z,977.64
2018-07-23T11:23:02.089Z,977.53
2018-07-23T11:24:02.114Z,977.81
2018-07-23T11:25:38.219Z,977.42
2018-07-23T11:26:02.083Z,977.74
2018-07-23T11:27:02.086Z,977.82
2018-07-23T11:28:02.126Z,977.72
2018-07-23T11:29:02.085Z,977.42
2018-07-23T11:30:02.087Z,977.74
2018-07-23T11:31:02.065Z,977.73
2018-07-23T11:32:02.094Z,977.59
2018-07-23T11:33:02.084Z,977.52
2018-07-23T11:34:02.089Z,977.62
2018-07-23T11:35:02.086Z,977.49
2018-07-23T11:36:02.105Z,977.39
2018-07-23T11:37:02.081Z,977.4
2018-07-23T11:38:02.053Z,977.67
2018-07-23T11:39:02.092Z,977.77
2018-07-23T11:40:02.091Z,977.52
2018-07-23T11:41:02.110Z,977.77
2018-07-23T11:42:02.117Z,977.55
2018-07-23T11:43:02.071Z,977.62
2018-07-23T11:44:02.109Z,977.56
2018-07-23T11:45:02.169Z,977.22
2018-07-23T11:46:02.117Z,977.4
2018-07-23T11:47:02.176Z,977.35
2018-07-23T11:48:02.100Z,977.13
2018-07-23T11:49:02.112Z,977.38
2018-07-23T11:50:02.156Z,977.39
2018-07-23T11:51:02.168Z,977.41
2018-07-23T11:52:02.147Z,977.51
2018-07-23T11:53:02.137Z,977.53
2018-07-23T11:54:02.148Z,977.45
2018-07-23T11:55:02.134Z,977.28
2018-07-23T11:56:02.097Z,977.54
2018-07-23T11:57:02.270Z,977.22
2018-07-23T11:58:02.244Z,977.44
2018-07-23T11:59:02.120Z,977.14
2018-07-23T12:00:02.164Z,977.38
2018-07-23T12:01:02.096Z,976.93
2018-07-23T12:02:02.198Z,977.12
2018-07-23T12:03:02.144Z,977.18
2018-07-23T12:04:02.216Z,977.34
2018-07-23T12:05:02.192Z,977.34
2018-07-23T12:06:02.137Z,977.37
2018-07-23T12:07:02.119Z,977.49
2018-07-23T12:08:02.185Z,977.49
2018-07-23T12:09:02.157Z,977.21
2018-07-23T12:10:02.149Z,977.06
2018-07-23T12:11:02.185Z,977.34
2018-07-23T12:12:02.134Z,977.34
2018-07-23T12:13:02.161Z,977.36
2018-07-23T12:14:02.120Z,977.33
2018-07-23T12:15:02.126Z,977.33
2018-07-23T12:16:02.161Z,977.29
2018-07-23T12:17:02.167Z,977.26
2018-07-23T12:18:02.671Z,977.54
2018-07-23T12:19:02.148Z,977.68
2018-07-23T12:20:02.137Z,977.41
2018-07-23T12:21:02.157Z,977.41
2018-07-23T12:22:02.207Z,977.4
2018-07-23T12:25:09.574Z,977.38
2018-07-23T12:25:22.008Z,977.36
2018-07-23T12:26:22.339Z,977.38
2018-07-23T12:27:21.997Z,977.25
2018-07-23T12:28:21.988Z,977.33
2018-07-23T12:29:22.006Z,977.36
2018-07-23T12:30:21.983Z,977.26
2018-07-23T12:31:22.006Z,977.14
2018-07-23T12:32:22.038Z,977.23
2018-07-23T12:33:22.031Z,977.22
2018-07-23T12:34:22.049Z,977.33
2018-07-23T12:35:21.975Z,977.01
2018-07-23T12:37:41.957Z,977.4
2018-07-23T12:38:41.974Z,977.15
2018-07-23T12:39:41.956Z,977.15
2018-07-23T12:40:41.919Z,977.41
2018-07-23T12:41:41.903Z,977.32
2018-07-23T12:42:42.052Z,977.26
2018-07-23T12:43:41.929Z,977.22
2018-07-23T12:44:41.908Z,977.44
2018-07-23T12:45:41.917Z,977.19
2018-07-23T12:46:41.983Z,977.09
2018-07-23T12:47:41.957Z,977.28
2018-07-23T12:48:41.972Z,977.05